createdAt,value
2018-10-02T00:00:02.645Z,99564.31
2018-10-02T00:02:32.206Z,99572.72
2018-10-02T00:05:01.810Z,99568.87
2018-10-02T00:07:31.346Z,99570.23
2018-10-02T00:10:00.883Z,99568.59
2018-10-02T00:12:35.374Z,99566.67
2018-10-02T00:15:05.134Z,99564.76
2018-10-02T00:17:34.655Z,99560.98
2018-10-02T00:20:04.359Z,99563.65
2018-10-02T00:22:33.872Z,99561.22
2018-10-02T00:25:03.558Z,99562.28
2018-10-02T00:27:33.098Z,99563.65
2018-10-02T00:30:02.676Z,99562.85
2018-10-02T00:32:32.255Z,99554.65
2018-10-02T00:35:01.840Z,99551.13
2018-10-02T00:37:31.391Z,99550.02
2018-10-02T00:40:00.986Z,99554.36
2018-10-02T00:42:30.534Z,99558.17
2018-10-02T00:45:00.070Z,99558.73
2018-10-02T00:47:29.648Z,99567.45
2018-10-02T00:49:59.150Z,99567.70
2018-10-02T00:52:28.718Z,99562.81
2018-10-02T00:54:58.218Z,99569.86
2018-10-02T00:57:27.801Z,99564.36
2018-10-02T00:59:57.327Z,99571.69
2018-10-02T01:02:26.911Z,99558.08
2018-10-02T01:04:56.476Z,99555.59
2018-10-02T01:07:25.983Z,99569.18
2018-10-02T01:09:55.563Z,99563.76
2018-10-02T01:12:25.127Z,99571.11
2018-10-02T01:14:54.727Z,99566.97
2018-10-02T01:17:24.243Z,99562.36
2018-10-02T01:19:53.790Z,99562.36
2018-10-02T01:22:23.322Z,99564.45
2018-10-02T01:24:52.851Z,99571.25
2018-10-02T01:27:22.420Z,99564.66
2018-10-02T01:29:52.033Z,99565.50
2018-10-02T01:32:21.530Z,99565.72
2018-10-02T01:34:51.069Z,99561.85
2018-10-02T01:37:20.579Z,99558.86
2018-10-02T01:39:50.118Z,99558.59
2018-10-02T01:42:19.621Z,99571.60
2018-10-02T01:44:49.225Z,99569.18
2018-10-02T01:47:19.081Z,99571.38
2018-10-02T01:49:48.671Z,99573.51
2018-10-02T01:52:18.249Z,99578.38
2018-10-02T01:54:47.750Z,99575.41
2018-10-02T01:57:17.271Z,99577.84
2018-10-02T01:59:46.799Z,99575.89
2018-10-02T02:02:16.334Z,99578.00
2018-10-02T02:04:45.926Z,99580.49
2018-10-02T02:07:15.462Z,99583.70
2018-10-02T02:09:44.981Z,99585.06
2018-10-02T02:12:14.519Z,99580.17
2018-10-02T02:14:44.018Z,99585.61
2018-10-02T02:17:13.559Z,99584.20
2018-10-02T02:19:43.148Z,99579.05
2018-10-02T02:22:12.666Z,99585.83
2018-10-02T02:24:42.226Z,99590.80
2018-10-02T02:27:11.834Z,99593.55
2018-10-02T02:29:41.366Z,99596.19
2018-10-02T02:32:10.857Z,99596.47
2018-10-02T02:34:40.390Z,99595.92
2018-10-02T02:37:09.970Z,99604.65
2018-10-02T02:39:39.502Z,99600.02
2018-10-02T02:42:09.042Z,99604.11
2018-10-02T02:44:38.710Z,99605.44
2018-10-02T02:47:13.332Z,99608.14
2018-10-02T02:49:47.969Z,99606.50
2018-10-02T02:52:19.762Z,99608.16
2018-10-02T02:54:49.280Z,99610.05
2018-10-02T02:57:18.838Z,99620.92
2018-10-02T02:59:48.354Z,99621.33
2018-10-02T03:02:17.903Z,99621.05
2018-10-02T03:04:47.502Z,99620.80
2018-10-02T03:07:17.070Z,99620.80
2018-10-02T03:09:46.578Z,99622.72
2018-10-02T03:12:16.118Z,99628.39
2018-10-02T03:14:45.622Z,99625.11
2018-10-02T03:17:15.147Z,99622.12
2018-10-02T03:19:44.658Z,99628.61
2018-10-02T03:22:14.251Z,99632.36
2018-10-02T03:24:43.801Z,99606.54
2018-10-02T03:27:13.450Z,99641.86
2018-10-02T03:29:43.029Z,99642.64
2018-10-02T03:32:12.611Z,99648.57
2018-10-02T03:34:42.178Z,99648.24
2018-10-02T03:37:11.718Z,99643.83
2018-10-02T03:39:41.339Z,99644.07
2018-10-02T03:42:10.859Z,99651.39
2018-10-02T03:44:40.426Z,99658.18
2018-10-02T03:47:09.972Z,99658.39
2018-10-02T03:49:39.524Z,99655.09
2018-10-02T03:52:09.121Z,99656.67
2018-10-02T03:54:38.634Z,99654.47
2018-10-02T03:57:08.166Z,99656.24
2018-10-02T03:59:37.685Z,99654.88
2018-10-02T04:02:07.371Z,99651.02
2018-10-02T04:04:36.860Z,99653.22
2018-10-02T04:07:06.396Z,99648.27
2018-10-02T04:09:35.918Z,99656.66
2018-10-02T04:12:05.474Z,99658.25
2018-10-02T04:14:35.010Z,99660.91
2018-10-02T04:17:04.723Z,99665.80
2018-10-02T04:19:34.334Z,99666.37
2018-10-02T04:22:03.851Z,99669.84
2018-10-02T04:24:33.434Z,99669.30
2018-10-02T04:27:02.977Z,99676.15
2018-10-02T04:29:32.482Z,99668.88
2018-10-02T04:32:02.019Z,99554.00
2018-10-02T04:34:31.580Z,99669.52
2018-10-02T04:37:01.145Z,99674.48
2018-10-02T04:39:30.739Z,99670.98
2018-10-02T04:42:00.253Z,99678.38
2018-10-02T04:44:29.827Z,99684.18
2018-10-02T04:46:59.378Z,99685.60
2018-10-02T04:49:28.915Z,99680.77
2018-10-02T04:51:58.480Z,99682.22
2018-10-02T04:54:28.034Z,99682.28
2018-10-02T04:56:57.654Z,99687.02
2018-10-02T04:59:27.219Z,99691.23
2018-10-02T05:01:56.858Z,99693.86
2018-10-02T05:04:26.356Z,99701.09
2018-10-02T05:06:55.971Z,99699.67
2018-10-02T05:09:25.561Z,99701.47
2018-10-02T05:11:55.163Z,99704.39
2018-10-02T05:14:24.710Z,99704.77
2018-10-02T05:16:54.419Z,99710.07
2018-10-02T05:19:23.942Z,99722.13
2018-10-02T05:21:53.498Z,99721.32
2018-10-02T05:24:23.187Z,99719.83
2018-10-02T05:26:52.911Z,99727.09
2018-10-02T05:29:22.530Z,99726.73
2018-10-02T05:31:54.584Z,99732.60
2018-10-02T05:34:24.185Z,99736.23
2018-10-02T05:36:53.758Z,99731.72
2018-10-02T05:39:23.695Z,99734.81
2018-10-02T05:41:53.259Z,99740.63
2018-10-02T05:44:22.842Z,99739.56
2018-10-02T05:46:52.349Z,99741.82
2018-10-02T05:49:22.117Z,99751.94
2018-10-02T05:51:51.926Z,99756.11
2018-10-02T05:54:21.469Z,99756.41
2018-10-02T05:56:51.160Z,99754.22
2018-10-02T05:59:20.844Z,99757.80
2018-10-02T06:01:50.858Z,99765.73
2018-10-02T06:04:20.560Z,99773.13
2018-10-02T06:06:50.182Z,99774.77
2018-10-02T06:09:19.877Z,99783.81
2018-10-02T06:11:49.460Z,99783.55
2018-10-02T06:14:19.128Z,99795.08
2018-10-02T06:16:48.918Z,99793.70
2018-10-02T06:19:18.526Z,99801.11
2018-10-02T06:21:48.077Z,99808.48
2018-10-02T06:24:17.797Z,99703.98
2018-10-02T06:26:47.495Z,99806.83
2018-10-02T06:29:17.150Z,99804.88
2018-10-02T06:31:46.775Z,99808.95
2018-10-02T06:34:16.420Z,99807.30
2018-10-02T06:36:46.045Z,99802.89
2018-10-02T06:39:15.721Z,99803.73
2018-10-02T06:41:45.303Z,99807.29
2018-10-02T06:44:14.938Z,99818.76
2018-10-02T06:46:44.979Z,99822.90
2018-10-02T06:49:14.612Z,99828.60
2018-10-02T06:51:44.269Z,99829.90
2018-10-02T06:54:13.848Z,99829.02
2018-10-02T06:56:43.532Z,99835.81
2018-10-02T06:59:13.128Z,99842.61
2018-10-02T07:01:42.746Z,99840.58
2018-10-02T07:04:12.391Z,99841.13
2018-10-02T07:06:42.088Z,99842.79
2018-10-02T07:09:11.955Z,99847.72
2018-10-02T07:11:41.838Z,99847.13
2018-10-02T07:14:11.733Z,99848.76
2018-10-02T07:16:41.330Z,99855.31
2018-10-02T07:19:10.962Z,99847.31
2018-10-02T07:21:40.557Z,99847.77
2018-10-02T07:24:10.190Z,99847.19
2018-10-02T07:26:39.926Z,99852.59
2018-10-02T07:29:09.709Z,99857.98
2018-10-02T07:31:39.249Z,99853.08
2018-10-02T07:34:08.757Z,99860.36
2018-10-02T07:36:38.389Z,99866.91
2018-10-02T07:39:09.091Z,99864.95
2018-10-02T07:41:38.648Z,99876.94
2018-10-02T07:44:09.049Z,99871.97
2018-10-02T07:46:38.610Z,99870.53
2018-10-02T07:49:09.692Z,99878.21
2018-10-02T07:51:39.355Z,99870.53
2018-10-02T07:54:09.130Z,99871.73
2018-10-02T07:56:38.828Z,99865.31
2018-10-02T07:59:08.676Z,99867.22
2018-10-02T08:01:38.758Z,99871.91
2018-10-02T08:04:08.515Z,99875.18
2018-10-02T08:06:38.090Z,99874.52
2018-10-02T08:09:10.095Z,99876.30
2018-10-02T08:11:41.734Z,99878.20
2018-10-02T08:14:11.274Z,99881.38
2018-10-02T08:16:40.890Z,99878.08
2018-10-02T08:19:10.487Z,99880.19
2018-10-02T08:21:40.104Z,99880.72
2018-10-02T08:24:09.780Z,99883.46
2018-10-02T08:26:39.339Z,99883.84
2018-10-02T08:29:08.895Z,99890.92
2018-10-02T08:31:38.480Z,99891.45
2018-10-02T08:34:08.157Z,99897.12
2018-10-02T08:36:37.882Z,99795.45
2018-10-02T08:39:09.254Z,99896.63
2018-10-02T08:41:38.986Z,99900.70
2018-10-02T08:44:08.630Z,99905.95
2018-10-02T08:46:38.242Z,99904.70
2018-10-02T08:49:07.847Z,99914.72
2018-10-02T08:51:37.611Z,99909.17
2018-10-02T08:54:07.252Z,99915.38
2018-10-02T08:56:36.799Z,99900.00
2018-10-02T08:59:06.698Z,99905.61
2018-10-02T09:01:36.359Z,99906.21
2018-10-02T09:04:05.990Z,99913.66
2018-10-02T09:06:35.588Z,99912.75
2018-10-02T09:09:08.375Z,99899.49
2018-10-02T09:11:38.048Z,99891.37
2018-10-02T09:14:07.924Z,99896.43
2018-10-02T09:16:37.667Z,99893.63
2018-10-02T09:19:07.698Z,99890.33
2018-10-02T09:21:37.314Z,99893.95
2018-10-02T09:24:06.950Z,99899.98
2018-10-02T09:26:36.522Z,99887.92
2018-10-02T09:29:06.240Z,99890.86
2018-10-02T09:31:40.766Z,99887.53
2018-10-02T09:34:15.544Z,99886.50
2018-10-02T09:36:50.097Z,99890.29
2018-10-02T09:39:24.780Z,99891.19
2018-10-02T09:41:59.282Z,99894.02
2018-10-02T09:44:28.943Z,99889.31
2018-10-02T09:46:58.599Z,99893.96
2018-10-02T09:49:28.212Z,99895.39
2018-10-02T09:51:57.793Z,99893.57
2018-10-02T09:54:27.429Z,99894.59
2018-10-02T09:56:57.101Z,99888.68
2018-10-02T09:59:26.743Z,99788.39
2018-10-02T10:02:01.285Z,99893.91
2018-10-02T10:04:31.114Z,99891.38
2018-10-02T10:07:00.759Z,99898.08
2018-10-02T10:09:30.921Z,99885.45
2018-10-02T10:12:00.520Z,99881.50
2018-10-02T10:14:30.095Z,99879.59
2018-10-02T10:16:59.787Z,99880.75
2018-10-02T10:19:29.468Z,99882.29
2018-10-02T10:21:59.042Z,99875.05
2018-10-02T10:24:28.681Z,99873.42
2018-10-02T10:26:58.261Z,99869.69
2018-10-02T10:29:27.824Z,99874.67
2018-10-02T10:31:57.376Z,99869.86
2018-10-02T10:34:27.024Z,99867.48
2018-10-02T10:36:56.714Z,99865.88
2018-10-02T10:39:26.301Z,99859.94
2018-10-02T10:41:55.858Z,99855.42
2018-10-02T10:44:25.489Z,99851.38
2018-10-02T10:46:55.099Z,99856.94
2018-10-02T10:49:24.751Z,99847.84
2018-10-02T10:51:54.299Z,99849.00
2018-10-02T10:54:23.936Z,99845.16
2018-10-02T10:56:53.508Z,99844.30
2018-10-02T10:59:23.174Z,99841.45
2018-10-02T11:01:52.738Z,99846.63
2018-10-02T11:05:51.795Z,99840.53
2018-10-02T11:08:21.406Z,99831.71
2018-10-02T11:10:51.044Z,99831.71
2018-10-02T11:13:20.703Z,99834.11
2018-10-02T11:15:50.331Z,99823.59
2018-10-02T11:18:19.861Z,99822.03
2018-10-02T11:20:49.575Z,99809.80
2018-10-02T11:23:19.160Z,99808.42
2018-10-02T11:25:48.903Z,99805.67
2018-10-02T11:28:18.453Z,99801.26
2018-10-02T11:30:48.168Z,99616.41
2018-10-02T11:33:17.763Z,99797.97
2018-10-02T11:35:47.318Z,99798.86
2018-10-02T11:38:16.898Z,99804.55
2018-10-02T11:40:46.507Z,99809.86
2018-10-02T11:43:16.160Z,99695.28
2018-10-02T11:45:45.759Z,99783.83
2018-10-02T11:48:15.280Z,99782.92
2018-10-02T11:50:44.877Z,99786.93
2018-10-02T11:53:14.462Z,99786.69
2018-10-02T11:55:44.074Z,99795.78
2018-10-02T11:58:13.600Z,99783.60
2018-10-02T12:00:43.424Z,99778.86
2018-10-02T12:03:13.011Z,99780.10
2018-10-02T12:05:42.572Z,99781.38
2018-10-02T12:08:12.129Z,99782.70
2018-10-02T12:10:41.693Z,99785.32
2018-10-02T12:13:11.333Z,99783.34
2018-10-02T12:15:40.851Z,99780.70
2018-10-02T12:18:10.398Z,99781.38
2018-10-02T12:20:39.966Z,99781.72
2018-10-02T12:23:09.477Z,99770.46
2018-10-02T12:25:39.068Z,99770.17
2018-10-02T12:28:08.750Z,99766.30
2018-10-02T12:30:38.319Z,99761.00
2018-10-02T12:33:07.934Z,99757.20
2018-10-02T12:35:37.453Z,99751.10
2018-10-02T12:38:07.091Z,99748.20
2018-10-02T12:40:36.631Z,99743.05
2018-10-02T12:43:06.199Z,99741.84
2018-10-02T12:45:35.800Z,99750.58
2018-10-02T12:48:05.366Z,99761.25
2018-10-02T12:50:35.055Z,99756.80
2018-10-02T12:53:04.987Z,99757.84
2018-10-02T12:55:34.593Z,99764.94
2018-10-02T12:58:04.287Z,99750.81
2018-10-02T13:00:33.838Z,99755.22
2018-10-02T13:03:03.775Z,99747.70
2018-10-02T13:05:33.280Z,99747.89
2018-10-02T13:08:03.055Z,99758.14
2018-10-02T13:10:32.617Z,99758.69
2018-10-02T13:13:02.280Z,99751.73
2018-10-02T13:15:31.893Z,99757.68
2018-10-02T13:18:01.439Z,99749.39
2018-10-02T13:20:31.106Z,99756.19
2018-10-02T13:23:00.752Z,99755.88
2018-10-02T13:25:30.388Z,99757.87
2018-10-02T13:27:59.980Z,99758.13
2018-10-02T13:30:29.625Z,99752.09
2018-10-02T13:32:59.207Z,99755.08
2018-10-02T13:35:28.889Z,99752.72
2018-10-02T13:37:58.580Z,99750.77
2018-10-02T13:40:28.142Z,99753.70
2018-10-02T13:42:58.003Z,99756.47
2018-10-02T13:45:27.704Z,99757.98
2018-10-02T13:47:57.537Z,99758.73
2018-10-02T13:50:27.125Z,99762.96
2018-10-02T13:52:56.660Z,99758.39
2018-10-02T13:55:26.267Z,99757.66
2018-10-02T13:57:56.088Z,99761.39
2018-10-02T14:00:25.800Z,99757.82
2018-10-02T14:02:55.362Z,99763.92
2018-10-02T14:05:24.916Z,99762.16
2018-10-02T14:07:54.535Z,99757.43
2018-10-02T14:10:24.142Z,99750.52
2018-10-02T14:12:53.898Z,99754.41
2018-10-02T14:15:23.532Z,99749.45
2018-10-02T14:17:53.211Z,99752.98
2018-10-02T14:20:23.170Z,99680.30
2018-10-02T14:22:52.750Z,99753.77
2018-10-02T14:25:22.402Z,99753.38
2018-10-02T14:27:52.198Z,99744.28
2018-10-02T14:30:21.802Z,99750.13
2018-10-02T14:32:51.447Z,99755.41
2018-10-02T14:35:21.060Z,99751.58
2018-10-02T14:37:50.640Z,99749.13
2018-10-02T14:40:20.207Z,99757.68
2018-10-02T14:42:49.774Z,99755.10
2018-10-02T14:45:19.363Z,99754.03
2018-10-02T14:47:48.915Z,99768.23
2018-10-02T14:50:18.478Z,99766.93
2018-10-02T14:52:48.062Z,99767.97
2018-10-02T14:55:17.569Z,99770.00
2018-10-02T14:57:47.115Z,99759.83
2018-10-02T15:00:16.645Z,99758.91
2018-10-02T15:02:46.266Z,99761.98
2018-10-02T15:05:15.828Z,99757.84
2018-10-02T15:07:45.402Z,99759.37
2018-10-02T15:10:14.962Z,99758.37
2018-10-02T15:12:44.523Z,99755.11
2018-10-02T15:15:14.042Z,99757.44
2018-10-02T15:17:43.605Z,99766.27
2018-10-02T15:20:13.124Z,99766.15
2018-10-02T15:22:42.686Z,99772.31
2018-10-02T15:25:12.219Z,99776.84
2018-10-02T15:27:41.794Z,99775.23
2018-10-02T15:30:11.347Z,99773.42
2018-10-02T15:32:40.902Z,99770.80
2018-10-02T15:35:10.437Z,99779.45
2018-10-02T15:37:40.058Z,99782.09
2018-10-02T15:40:09.566Z,99779.70
2018-10-02T15:42:39.149Z,99782.33
2018-10-02T15:45:08.669Z,99782.19
2018-10-02T15:47:38.232Z,99777.78
2018-10-02T15:50:07.804Z,99773.70
2018-10-02T15:52:37.352Z,99775.16
2018-10-02T15:55:06.975Z,99774.21
2018-10-02T15:57:36.616Z,99774.80
2018-10-02T16:00:06.374Z,99775.98
2018-10-02T16:02:36.030Z,99784.89
2018-10-02T16:05:05.699Z,99787.64
2018-10-02T16:07:35.288Z,99780.81
2018-10-02T16:10:04.979Z,99782.55
2018-10-02T16:12:34.493Z,99787.38
2018-10-02T16:15:04.152Z,99788.34
2018-10-02T16:17:33.668Z,99786.16
2018-10-02T16:20:03.240Z,99789.39
2018-10-02T16:22:32.738Z,99785.28
2018-10-02T16:25:02.299Z,99779.20
2018-10-02T16:27:31.822Z,99787.56
2018-10-02T16:30:01.382Z,99784.05
2018-10-02T16:32:30.878Z,99791.77
2018-10-02T16:35:00.407Z,99789.88
2018-10-02T16:37:29.921Z,99796.11
2018-10-02T16:39:59.491Z,99793.86
2018-10-02T16:42:29.090Z,99802.13
2018-10-02T16:44:58.630Z,99800.22
2018-10-02T16:47:28.176Z,99802.82
2018-10-02T16:49:57.757Z,99805.58
2018-10-02T16:52:27.276Z,99813.28
2018-10-02T16:54:56.890Z,99815.31
2018-10-02T16:57:26.458Z,99820.61
2018-10-02T16:59:55.985Z,99821.81
2018-10-02T17:02:25.525Z,99824.11
2018-10-02T17:04:55.095Z,99822.76
2018-10-02T17:07:24.605Z,99816.22
2018-10-02T17:09:54.162Z,99821.44
2018-10-02T17:12:23.739Z,99823.44
2018-10-02T17:14:53.306Z,99825.70
2018-10-02T17:17:22.874Z,99825.19
2018-10-02T17:19:52.403Z,99827.43
2018-10-02T17:22:21.908Z,99830.81
2018-10-02T17:24:51.568Z,99836.08
2018-10-02T17:27:21.110Z,99840.80
2018-10-02T17:29:50.617Z,99846.08
2018-10-02T17:32:20.243Z,99848.31
2018-10-02T17:34:49.790Z,99852.17
2018-10-02T17:37:19.286Z,99856.09
2018-10-02T17:39:48.847Z,99865.21
2018-10-02T17:42:18.383Z,99863.64
2018-10-02T17:44:47.926Z,99870.05
2018-10-02T17:47:17.416Z,99877.63
2018-10-02T17:49:46.978Z,99886.27
2018-10-02T17:52:16.514Z,99890.50
2018-10-02T17:54:46.097Z,99884.86
2018-10-02T17:57:15.602Z,99883.30
2018-10-02T17:59:45.138Z,99880.88
2018-10-02T18:02:14.668Z,99884.01
2018-10-02T18:04:44.250Z,99884.06
2018-10-02T18:07:13.791Z,99878.61
2018-10-02T18:09:43.330Z,99889.67
2018-10-02T18:12:12.878Z,99889.15
2018-10-02T18:14:42.411Z,99885.34
2018-10-02T18:17:11.933Z,99885.91
2018-10-02T18:19:41.563Z,99886.56
2018-10-02T18:22:11.066Z,99889.64
2018-10-02T18:24:40.619Z,99892.72
2018-10-02T18:27:10.178Z,99892.20
2018-10-02T18:29:39.732Z,99893.06
2018-10-02T18:32:09.444Z,99900.55
2018-10-02T18:34:39.014Z,99894.77
2018-10-02T18:37:08.679Z,99896.47
2018-10-02T18:39:38.270Z,99905.36
2018-10-02T18:42:07.838Z,99904.31
2018-10-02T18:44:37.382Z,99903.50
2018-10-02T18:47:06.920Z,99911.54
2018-10-02T18:49:36.438Z,99802.34
2018-10-02T18:52:05.961Z,99909.16
2018-10-02T18:54:35.546Z,99910.81
2018-10-02T18:57:05.114Z,99916.09
2018-10-02T18:59:34.774Z,99912.29
2018-10-02T19:02:04.356Z,99913.45
2018-10-02T19:04:33.904Z,99919.23
2018-10-02T19:07:03.424Z,99915.70
2018-10-02T19:09:33.016Z,99914.61
2018-10-02T19:12:07.537Z,99918.48
2018-10-02T19:14:37.103Z,99916.05
2018-10-02T19:17:06.692Z,99916.40
2018-10-02T19:19:41.294Z,99922.77
2018-10-02T19:22:10.878Z,99919.52
2018-10-02T19:24:40.480Z,99917.30
2018-10-02T19:27:10.034Z,99925.07
2018-10-02T19:29:39.677Z,99925.07
2018-10-02T19:32:11.834Z,99927.03
2018-10-02T19:34:41.345Z,99928.99
2018-10-02T19:37:15.899Z,99926.77
2018-10-02T19:39:45.453Z,99928.98
2018-10-02T19:42:15.420Z,99935.60
2018-10-02T19:44:44.943Z,99934.81
2018-10-02T19:47:14.558Z,99933.70
2018-10-02T19:49:44.041Z,99939.24
2018-10-02T19:52:14.800Z,99939.77
2018-10-02T19:54:44.832Z,99939.80
2018-10-02T19:57:15.954Z,99942.28
2018-10-02T19:59:45.509Z,99944.50
2018-10-02T20:02:15.055Z,99937.12
2018-10-02T20:04:44.596Z,99939.87
2018-10-02T20:07:14.155Z,99947.85
2018-10-02T20:09:43.690Z,99945.69
2018-10-02T20:12:13.221Z,99947.91
2018-10-02T20:14:42.778Z,99954.78
2018-10-02T20:17:12.313Z,99956.45
2018-10-02T20:19:41.904Z,99952.34
2018-10-02T20:22:11.966Z,99957.61
2018-10-02T20:24:41.542Z,99958.72
2018-10-02T20:27:11.139Z,99970.80
2018-10-02T20:29:40.658Z,99974.10
2018-10-02T20:32:10.238Z,99967.80
2018-10-02T20:34:39.738Z,99965.11
2018-10-02T20:37:09.286Z,99962.95
2018-10-02T20:39:38.864Z,99965.95
2018-10-02T20:42:08.435Z,99962.39
2018-10-02T20:44:37.942Z,99855.72
2018-10-02T20:47:07.482Z,99966.26
2018-10-02T20:49:37.121Z,99966.26
2018-10-02T20:52:06.637Z,99963.52
2018-10-02T20:54:36.259Z,99968.23
2018-10-02T20:57:05.831Z,99967.12
2018-10-02T20:59:35.324Z,99970.70
2018-10-02T21:02:04.903Z,99975.12
2018-10-02T21:04:34.409Z,99980.60
2018-10-02T21:07:03.988Z,99979.26
2018-10-02T21:09:33.498Z,99984.21
2018-10-02T21:12:03.030Z,99982.00
2018-10-02T21:14:32.547Z,99979.28
2018-10-02T21:17:02.102Z,99979.27
2018-10-02T21:19:31.625Z,99983.10
2018-10-02T21:22:01.151Z,99974.92
2018-10-02T21:24:30.677Z,99981.47
2018-10-02T21:27:00.209Z,99982.33
2018-10-02T21:29:29.805Z,99976.02
2018-10-02T21:31:59.515Z,99977.11
2018-10-02T21:34:29.122Z,99966.70
2018-10-02T21:36:58.644Z,99974.64
2018-10-02T21:39:28.274Z,99972.72
2018-10-02T21:41:57.832Z,99966.70
2018-10-02T21:44:27.403Z,99969.17
2018-10-02T21:46:56.959Z,99972.73
2018-10-02T21:49:26.495Z,99968.91
2018-10-02T21:51:56.039Z,99966.45
2018-10-02T21:54:25.622Z,99967.81
2018-10-02T21:56:55.190Z,99966.16
2018-10-02T21:59:24.767Z,99970.00
2018-10-02T22:01:54.271Z,99970.02
2018-10-02T22:04:23.863Z,99970.56
2018-10-02T22:06:53.412Z,99977.40
2018-10-02T22:09:22.943Z,99972.75
2018-10-02T22:11:52.458Z,99971.11
2018-10-02T22:14:22.037Z,99970.56
2018-10-02T22:16:51.569Z,99967.55
2018-10-02T22:19:21.119Z,99970.56
2018-10-02T22:21:50.667Z,99964.53
2018-10-02T22:24:20.207Z,99969.73
2018-10-02T22:26:49.753Z,99970.84
2018-10-02T22:29:19.302Z,99974.41
2018-10-02T22:31:48.824Z,99973.86
2018-10-02T22:34:18.397Z,99979.61
2018-10-02T22:36:47.945Z,99976.29
2018-10-02T22:39:17.500Z,99983.13
2018-10-02T22:41:47.001Z,99986.14
2018-10-02T22:44:16.579Z,99985.33
2018-10-02T22:46:46.138Z,99981.75
2018-10-02T22:49:15.722Z,99981.75
2018-10-02T22:51:45.250Z,99986.13
2018-10-02T22:54:14.830Z,99982.31
2018-10-02T22:56:44.342Z,99984.77
2018-10-02T22:59:13.954Z,99989.95
2018-10-02T23:01:43.462Z,99988.33
2018-10-02T23:04:13.058Z,100000.36
2018-10-02T23:06:42.625Z,99985.86
2018-10-02T23:09:13.205Z,99983.39
2018-10-02T23:11:42.672Z,99980.36
2018-10-02T23:14:12.225Z,99986.10
2018-10-02T23:16:41.761Z,99990.77
2018-10-02T23:19:11.328Z,99993.50
2018-10-02T23:21:40.871Z,100000.34
2018-10-02T23:24:10.472Z,99992.13
2018-10-02T23:26:39.988Z,99995.68
2018-10-02T23:29:09.604Z,99998.16
2018-10-02T23:31:39.155Z,100003.63
2018-10-02T23:34:08.688Z,99993.77
2018-10-02T23:36:38.286Z,100006.89
2018-10-02T23:39:09.126Z,100005.23
2018-10-02T23:41:38.714Z,100009.61
2018-10-02T23:44:08.338Z,100006.31
2018-10-02T23:46:37.885Z,100008.75
2018-10-02T23:49:07.413Z,100007.91
2018-10-02T23:51:36.963Z,100006.53
2018-10-02T23:54:06.511Z,100004.88
2018-10-02T23:56:36.102Z,100005.69
2018-10-02T23:59:05.917Z,100002.13
